sensor_id;sensor_type;location;lat;lon;timestamp;pressure;altitude;pressure_sealevel;temperature;humidity
66887;BME280;67239;51.680;5.976;2023-04-30T00:01:00;102218.16;;;7.58;85.76
66887;BME280;67239;51.680;5.976;2023-04-30T00:03:27;102213.78;;;7.59;86.29
66887;BME280;67239;51.680;5.976;2023-04-30T00:05:54;102215.53;;;7.57;86.45
66887;BME280;67239;51.680;5.976;2023-04-30T00:08:22;102207.66;;;7.52;86.70
66887;BME280;67239;51.680;5.976;2023-04-30T00:10:49;102211.97;;;7.47;86.47
66887;BME280;67239;51.680;5.976;2023-04-30T00:13:17;102212.81;;;7.43;86.58
66887;BME280;67239;51.680;5.976;2023-04-30T00:15:45;102215.47;;;7.40;86.92
66887;BME280;67239;51.680;5.976;2023-04-30T00:18:12;102216.31;;;7.37;87.13
66887;BME280;67239;51.680;5.976;2023-04-30T00:20:39;102211.91;;;7.33;87.33
66887;BME280;67239;51.680;5.976;2023-04-30T00:23:06;102211.03;;;7.29;87.61
66887;BME280;67239;51.680;5.976;2023-04-30T00:25:34;102216.25;;;7.26;87.62
66887;BME280;67239;51.680;5.976;2023-04-30T00:28:01;102221.50;;;7.25;87.99
66887;BME280;67239;51.680;5.976;2023-04-30T00:30:28;102220.56;;;7.20;88.31
66887;BME280;67239;51.680;5.976;2023-04-30T00:32:55;102210.94;;;7.17;88.59
66887;BME280;67239;51.680;5.976;2023-04-30T00:35:22;102213.56;;;7.12;88.56
66887;BME280;67239;51.680;5.976;2023-04-30T00:37:49;102216.16;;;7.09;88.50
66887;BME280;67239;51.680;5.976;2023-04-30T00:40:16;102215.25;;;7.04;88.62
66887;BME280;67239;51.680;5.976;2023-04-30T00:42:43;102216.97;;;7.01;88.70
66887;BME280;67239;51.680;5.976;2023-04-30T00:45:10;102208.19;;;6.95;88.83
66887;BME280;67239;51.680;5.976;2023-04-30T00:47:38;102214.34;;;6.96;88.95
66887;BME280;67239;51.680;5.976;2023-04-30T00:50:06;102222.19;;;6.96;89.19
66887;BME280;67239;51.680;5.976;2023-04-30T00:52:33;102210.78;;;6.92;89.47
66887;BME280;67239;51.680;5.976;2023-04-30T00:55:01;102211.66;;;6.90;89.38
66887;BME280;67239;51.680;5.976;2023-04-30T00:57:28;102218.63;;;6.84;89.41
66887;BME280;67239;51.680;5.976;2023-04-30T00:59:55;102216.84;;;6.80;89.04
66887;BME280;67239;51.680;5.976;2023-04-30T01:02:22;102228.19;;;6.76;89.13
66887;BME280;67239;51.680;5.976;2023-04-30T01:04:50;102225.53;;;6.73;89.35
66887;BME280;67239;51.680;5.976;2023-04-30T01:07:17;102224.59;;;6.68;89.37
66887;BME280;67239;51.680;5.976;2023-04-30T01:09:45;102233.31;;;6.65;89.30
66887;BME280;67239;51.680;5.976;2023-04-30T01:12:54;102228.03;;;6.61;89.40
66887;BME280;67239;51.680;5.976;2023-04-30T01:16:06;102223.56;;;6.50;89.82
66887;BME280;67239;51.680;5.976;2023-04-30T01:18:48;102232.25;;;6.45;90.15
66887;BME280;67239;51.680;5.976;2023-04-30T01:21:21;102226.13;;;6.40;90.35
66887;BME280;67239;51.680;5.976;2023-04-30T01:29:42;102225.09;;;6.27;90.35
66887;BME280;67239;51.680;5.976;2023-04-30T01:32:09;102225.94;;;6.24;90.25
66887;BME280;67239;51.680;5.976;2023-04-30T01:34:37;102228.53;;;6.19;90.41
66887;BME280;67239;51.680;5.976;2023-04-30T01:40:30;102226.69;;;6.09;90.68
66887;BME280;67239;51.680;5.976;2023-04-30T01:46:28;102223.91;;;5.98;91.02
66887;BME280;67239;51.680;5.976;2023-04-30T01:49:20;102212.56;;;5.96;91.25
66887;BME280;67239;51.680;5.976;2023-04-30T01:52:18;102219.44;;;5.91;91.96
66887;BME280;67239;51.680;5.976;2023-04-30T01:54:59;102228.16;;;5.88;92.49
66887;BME280;67239;51.680;5.976;2023-04-30T01:57:54;102222.03;;;5.85;92.87
66887;BME280;67239;51.680;5.976;2023-04-30T02:00:28;102221.09;;;5.81;93.10
66887;BME280;67239;51.680;5.976;2023-04-30T02:02:57;102218.41;;;5.75;93.32
66887;BME280;67239;51.680;5.976;2023-04-30T02:05:25;102233.22;;;5.73;93.75
66887;BME280;67239;51.680;5.976;2023-04-30T02:07:52;102224.44;;;5.68;93.91
66887;BME280;67239;51.680;5.976;2023-04-30T02:10:23;102234.00;;;5.66;93.78
66887;BME280;67239;51.680;5.976;2023-04-30T02:12:52;102227.00;;;5.63;94.12
66887;BME280;67239;51.680;5.976;2023-04-30T02:15:19;102225.28;;;5.65;94.72
66887;BME280;67239;51.680;5.976;2023-04-30T02:17:46;102221.75;;;5.65;94.91
66887;BME280;67239;51.680;5.976;2023-04-30T02:20:13;102224.38;;;5.65;95.13
66887;BME280;67239;51.680;5.976;2023-04-30T02:22:41;102225.28;;;5.64;95.40
66887;BME280;67239;51.680;5.976;2023-04-30T02:25:09;102218.28;;;5.64;95.49
66887;BME280;67239;51.680;5.976;2023-04-30T02:27:38;102219.16;;;5.65;95.79
66887;BME280;67239;51.680;5.976;2023-04-30T02:30:06;102220.03;;;5.64;95.60
66887;BME280;67239;51.680;5.976;2023-04-30T02:32:33;102220.91;;;5.64;96.18
66887;BME280;67239;51.680;5.976;2023-04-30T02:35:01;102226.13;;;5.66;96.15
66887;BME280;67239;51.680;5.976;2023-04-30T02:37:28;102220.03;;;5.64;96.23
66887;BME280;67239;51.680;5.976;2023-04-30T02:39:55;102217.41;;;5.64;96.20
66887;BME280;67239;51.680;5.976;2023-04-30T02:42:24;102219.13;;;5.62;96.12
66887;BME280;67239;51.680;5.976;2023-04-30T02:44:51;102214.75;;;5.59;95.92
66887;BME280;67239;51.680;5.976;2023-04-30T02:47:18;102211.25;;;5.60;96.02
66887;BME280;67239;51.680;5.976;2023-04-30T02:49:45;102212.09;;;5.57;95.96
66887;BME280;67239;51.680;5.976;2023-04-30T02:52:12;102210.38;;;5.58;95.84
66887;BME280;67239;51.680;5.976;2023-04-30T02:54:39;102212.94;;;5.53;95.64
66887;BME280;67239;51.680;5.976;2023-04-30T02:57:06;102218.13;;;5.52;95.46
66887;BME280;67239;51.680;5.976;2023-04-30T02:59:33;102219.84;;;5.50;95.40
66887;BME280;67239;51.680;5.976;2023-04-30T03:02:01;102220.69;;;5.47;95.57
66887;BME280;67239;51.680;5.976;2023-04-30T03:04:29;102223.25;;;5.42;95.37
66887;BME280;67239;51.680;5.976;2023-04-30T03:06:56;102222.31;;;5.39;95.81
66887;BME280;67239;51.680;5.976;2023-04-30T03:09:23;102220.56;;;5.39;96.24
66887;BME280;67239;51.680;5.976;2023-04-30T03:11:50;102212.72;;;5.38;96.83
66887;BME280;67239;51.680;5.976;2023-04-30T03:14:17;102217.97;;;5.39;97.03
66887;BME280;67239;51.680;5.976;2023-04-30T03:16:44;102224.94;;;5.39;97.22
66887;BME280;67239;51.680;5.976;2023-04-30T03:19:11;102226.69;;;5.38;97.34
66887;BME280;67239;51.680;5.976;2023-04-30T03:21:38;102216.22;;;5.38;97.25
66887;BME280;67239;51.680;5.976;2023-04-30T03:24:05;102220.56;;;5.36;97.59
66887;BME280;67239;51.680;5.976;2023-04-30T03:26:32;102215.34;;;5.38;97.65
66887;BME280;67239;51.680;5.976;2023-04-30T03:29:00;102220.56;;;5.38;98.00
66887;BME280;67239;51.680;5.976;2023-04-30T03:31:27;102217.94;;;5.36;97.93
66887;BME280;67239;51.680;5.976;2023-04-30T03:33:54;102219.72;;;5.39;98.64
66887;BME280;67239;51.680;5.976;2023-04-30T03:36:22;102220.63;;;5.41;98.56
66887;BME280;67239;51.680;5.976;2023-04-30T03:38:49;102217.09;;;5.37;98.42
66887;BME280;67239;51.680;5.976;2023-04-30T03:41:16;102221.41;;;5.35;98.39
66887;BME280;67239;51.680;5.976;2023-04-30T03:43:43;102219.63;;;5.33;98.29
66887;BME280;67239;51.680;5.976;2023-04-30T03:46:10;102218.72;;;5.29;98.30
66887;BME280;67239;51.680;5.976;2023-04-30T03:48:37;102221.28;;;5.27;98.27
66887;BME280;67239;51.680;5.976;2023-04-30T03:51:04;102220.38;;;5.24;98.15
66887;BME280;67239;51.680;5.976;2023-04-30T03:53:32;102229.97;;;5.25;98.40
66887;BME280;67239;51.680;5.976;2023-04-30T03:55:59;102222.13;;;5.23;98.58
66887;BME280;67239;51.680;5.976;2023-04-30T03:58:26;102222.94;;;5.19;98.77
66887;BME280;67239;51.680;5.976;2023-04-30T04:00:54;102232.47;;;5.17;98.55
66887;BME280;67239;51.680;5.976;2023-04-30T04:03:21;102237.72;;;5.17;98.48
66887;BME280;67239;51.680;5.976;2023-04-30T04:05:48;102235.94;;;5.16;98.41
66887;BME280;67239;51.680;5.976;2023-04-30T04:08:16;102237.66;;;5.14;98.21
66887;BME280;67239;51.680;5.976;2023-04-30T04:10:44;102230.72;;;5.15;98.36
66887;BME280;67239;51.680;5.976;2023-04-30T04:13:11;102227.25;;;5.16;98.20
66887;BME280;67239;51.680;5.976;2023-04-30T04:15:38;102228.97;;;5.15;98.15
66887;BME280;67239;51.680;5.976;2023-04-30T04:18:05;102227.19;;;5.14;98.30
66887;BME280;67239;51.680;5.976;2023-04-30T04:20:34;102218.50;;;5.13;98.25
66887;BME280;67239;51.680;5.976;2023-04-30T04:23:02;102222.00;;;5.16;98.17
66887;BME280;67239;51.680;5.976;2023-04-30T04:25:29;102219.47;;;5.20;98.35
66887;BME280;67239;51.680;5.976;2023-04-30T04:27:56;102219.44;;;5.19;97.95
66887;BME280;67239;51.680;5.976;2023-04-30T04:30:23;102222.06;;;5.20;97.83
66887;BME280;67239;51.680;5.976;2023-04-30T04:32:51;102222.38;;;5.42;97.55
66887;BME280;67239;51.680;5.976;2023-04-30T04:35:20;102225.72;;;6.02;95.88
66887;BME280;67239;51.680;5.976;2023-04-30T04:37:47;102226.06;;;6.36;94.20
66887;BME280;67239;51.680;5.976;2023-04-30T04:40:14;102222.03;;;6.76;93.06
66887;BME280;67239;51.680;5.976;2023-04-30T04:42:41;102230.34;;;7.47;90.27
66887;BME280;67239;51.680;5.976;2023-04-30T04:45:09;102232.06;;;7.39;89.60
66887;BME280;67239;51.680;5.976;2023-04-30T04:47:37;102232.09;;;7.43;89.12
66887;BME280;67239;51.680;5.976;2023-04-30T04:50:05;102240.06;;;7.67;88.05
66887;BME280;67239;51.680;5.976;2023-04-30T04:52:33;102246.34;;;8.23;86.09
66887;BME280;67239;51.680;5.976;2023-04-30T04:55:00;102235.06;;;8.49;84.64
66887;BME280;67239;51.680;5.976;2023-04-30T04:57:27;102241.19;;;8.73;83.81
66887;BME280;67239;51.680;5.976;2023-04-30T04:59:54;102242.06;;;8.73;83.14
66887;BME280;67239;51.680;5.976;2023-04-30T05:02:22;102246.44;;;8.97;82.00
66887;BME280;67239;51.680;5.976;2023-04-30T05:04:50;102242.00;;;9.18;81.52
66887;BME280;67239;51.680;5.976;2023-04-30T05:07:18;102238.47;;;9.35;81.03
66887;BME280;67239;51.680;5.976;2023-04-30T05:09:45;102237.38;;;9.91;78.95
66887;BME280;67239;51.680;5.976;2023-04-30T05:12:13;102241.72;;;9.95;78.49
66887;BME280;67239;51.680;5.976;2023-04-30T05:14:40;102238.94;;;10.19;77.22
66887;BME280;67239;51.680;5.976;2023-04-30T05:17:08;102246.59;;;10.61;76.24
66887;BME280;67239;51.680;5.976;2023-04-30T05:19:35;102245.25;;;11.13;74.65
66887;BME280;67239;51.680;5.976;2023-04-30T05:22:02;102243.25;;;12.10;71.88
66887;BME280;67239;51.680;5.976;2023-04-30T05:24:29;102241.63;;;13.56;68.04
66887;BME280;67239;51.680;5.976;2023-04-30T05:26:56;102240.47;;;14.84;63.92
66887;BME280;67239;51.680;5.976;2023-04-30T05:29:24;102243.59;;;15.95;61.33
66887;BME280;67239;51.680;5.976;2023-04-30T05:31:51;102237.69;;;16.96;57.25
66887;BME280;67239;51.680;5.976;2023-04-30T05:34:18;102231.91;;;17.81;54.51
66887;BME280;67239;51.680;5.976;2023-04-30T05:36:45;102229.91;;;18.54;52.52
66887;BME280;67239;51.680;5.976;2023-04-30T05:39:12;102231.91;;;19.13;49.66
66887;BME280;67239;51.680;5.976;2023-04-30T05:41:39;102222.84;;;19.55;47.90
66887;BME280;67239;51.680;5.976;2023-04-30T05:44:06;102219.97;;;19.79;46.71
66887;BME280;67239;51.680;5.976;2023-04-30T05:46:34;102222.06;;;19.13;45.62
66887;BME280;67239;51.680;5.976;2023-04-30T05:49:01;102224.97;;;16.52;50.93
66887;BME280;67239;51.680;5.976;2023-04-30T05:51:28;102234.56;;;14.35;56.78
66887;BME280;67239;51.680;5.976;2023-04-30T05:53:55;102236.59;;;12.94;61.16
66887;BME280;67239;51.680;5.976;2023-04-30T05:56:23;102237.19;;;11.97;64.63
66887;BME280;67239;51.680;5.976;2023-04-30T05:58:50;102242.41;;;11.33;67.24
66887;BME280;67239;51.680;5.976;2023-04-30T06:01:19;102247.22;;;10.89;69.48
66887;BME280;67239;51.680;5.976;2023-04-30T06:03:46;102243.19;;;10.49;71.20
66887;BME280;67239;51.680;5.976;2023-04-30T06:06:13;102238.94;;;10.19;72.60
66887;BME280;67239;51.680;5.976;2023-04-30T06:08:41;102246.97;;;9.97;74.02
66887;BME280;67239;51.680;5.976;2023-04-30T06:11:11;102235.63;;;9.84;74.34
66887;BME280;67239;51.680;5.976;2023-04-30T06:13:39;102240.97;;;9.66;75.41
66887;BME280;67239;51.680;5.976;2023-04-30T06:16:07;102248.06;;;9.56;76.30
66887;BME280;67239;51.680;5.976;2023-04-30T06:18:34;102239.28;;;9.51;76.76
66887;BME280;67239;51.680;5.976;2023-04-30T06:21:01;102245.44;;;9.48;77.06
66887;BME280;67239;51.680;5.976;2023-04-30T06:23:28;102248.97;;;9.45;77.13
66887;BME280;67239;51.680;5.976;2023-04-30T06:25:55;102245.47;;;9.43;77.49
66887;BME280;67239;51.680;5.976;2023-04-30T06:28:23;102237.56;;;9.43;77.49
66887;BME280;67239;51.680;5.976;2023-04-30T06:30:50;102246.34;;;9.42;77.70
66887;BME280;67239;51.680;5.976;2023-04-30T06:33:17;102248.09;;;9.43;78.42
66887;BME280;67239;51.680;5.976;2023-04-30T06:35:44;102242.78;;;9.46;78.50
66887;BME280;67239;51.680;5.976;2023-04-30T06:38:15;102244.56;;;9.54;78.59
66887;BME280;67239;51.680;5.976;2023-04-30T06:40:43;102247.16;;;9.63;78.74
66887;BME280;67239;51.680;5.976;2023-04-30T06:43:10;102241.84;;;9.72;79.12
66887;BME280;67239;51.680;5.976;2023-04-30T06:45:38;102243.53;;;9.84;79.34
66887;BME280;67239;51.680;5.976;2023-04-30T06:48:05;102242.56;;;9.99;78.32
66887;BME280;67239;51.680;5.976;2023-04-30T06:50:32;102242.53;;;10.10;76.69
66887;BME280;67239;51.680;5.976;2023-04-30T06:52:59;102233.75;;;10.11;76.32
66887;BME280;67239;51.680;5.976;2023-04-30T06:55:26;102240.75;;;10.17;76.25
66887;BME280;67239;51.680;5.976;2023-04-30T06:57:53;102242.47;;;10.22;76.33
66887;BME280;67239;51.680;5.976;2023-04-30T07:00:21;102240.63;;;10.29;76.19
66887;BME280;67239;51.680;5.976;2023-04-30T07:02:48;102239.72;;;10.41;75.68
66887;BME280;67239;51.680;5.976;2023-04-30T07:05:18;102240.56;;;10.48;75.28
66887;BME280;67239;51.680;5.976;2023-04-30T07:07:45;102242.25;;;10.53;74.90
66887;BME280;67239;51.680;5.976;2023-04-30T07:10:12;102242.19;;;10.61;75.64
66887;BME280;67239;51.680;5.976;2023-04-30T07:12:39;102244.75;;;10.70;76.25
66887;BME280;67239;51.680;5.976;2023-04-30T07:15:07;102241.97;;;10.87;75.99
66887;BME280;67239;51.680;5.976;2023-04-30T07:17:34;102253.28;;;11.02;75.53
66887;BME280;67239;51.680;5.976;2023-04-30T07:20:02;102247.84;;;11.14;75.78
66887;BME280;67239;51.680;5.976;2023-04-30T07:22:30;102247.69;;;11.31;75.33
66887;BME280;67239;51.680;5.976;2023-04-30T07:24:58;102250.19;;;11.44;73.34
66887;BME280;67239;51.680;5.976;2023-04-30T07:27:26;102244.84;;;11.48;74.24
66887;BME280;67239;51.680;5.976;2023-04-30T07:29:54;102247.34;;;11.62;73.67
66887;BME280;67239;51.680;5.976;2023-04-30T07:32:22;102249.03;;;11.70;73.46
66887;BME280;67239;51.680;5.976;2023-04-30T07:34:52;102237.44;;;11.78;73.75
66887;BME280;67239;51.680;5.976;2023-04-30T07:37:19;102240.78;;;11.91;72.84
66887;BME280;67239;51.680;5.976;2023-04-30T07:39:47;102241.63;;;11.96;72.19
66887;BME280;67239;51.680;5.976;2023-04-30T07:42:14;102238.06;;;12.01;72.09
66887;BME280;67239;51.680;5.976;2023-04-30T07:44:41;102245.03;;;12.06;71.76
66887;BME280;67239;51.680;5.976;2023-04-30T07:47:08;102246.72;;;12.12;71.39
66887;BME280;67239;51.680;5.976;2023-04-30T07:49:36;102244.84;;;12.19;72.29
66887;BME280;67239;51.680;5.976;2023-04-30T07:52:03;102238.53;;;12.31;72.28
66887;BME280;67239;51.680;5.976;2023-04-30T07:54:31;102235.72;;;12.41;72.24
66887;BME280;67239;51.680;5.976;2023-04-30T07:57:02;102238.16;;;12.54;71.65
66887;BME280;67239;51.680;5.976;2023-04-30T07:59:29;102241.59;;;12.59;70.93
66887;BME280;67239;51.680;5.976;2023-04-30T08:01:57;102243.09;;;12.74;71.55
66887;BME280;67239;51.680;5.976;2023-04-30T08:04:24;102248.22;;;12.85;71.32
66887;BME280;67239;51.680;5.976;2023-04-30T08:06:51;102247.19;;;12.94;68.71
66887;BME280;67239;51.680;5.976;2023-04-30T08:09:19;102248.97;;;12.93;68.43
66887;BME280;67239;51.680;5.976;2023-04-30T08:11:46;102250.72;;;12.93;68.57
66887;BME280;67239;51.680;5.976;2023-04-30T08:14:13;102248.88;;;12.98;69.83
66887;BME280;67239;51.680;5.976;2023-04-30T08:16:40;102250.34;;;13.14;69.42
66887;BME280;67239;51.680;5.976;2023-04-30T08:19:07;102249.34;;;13.22;68.13
66887;BME280;67239;51.680;5.976;2023-04-30T08:21:34;102241.31;;;13.25;68.25
66887;BME280;67239;51.680;5.976;2023-04-30T08:24:01;102254.47;;;13.31;68.03
66887;BME280;67239;51.680;5.976;2023-04-30T08:26:28;102251.72;;;13.34;67.99
66887;BME280;67239;51.680;5.976;2023-04-30T08:28:55;102249.00;;;13.40;67.91
66887;BME280;67239;51.680;5.976;2023-04-30T08:31:22;102252.38;;;13.48;67.71
66887;BME280;67239;51.680;5.976;2023-04-30T08:33:49;102248.59;;;13.60;67.75
66887;BME280;67239;51.680;5.976;2023-04-30T08:36:16;102257.25;;;13.70;67.78
66887;BME280;67239;51.680;5.976;2023-04-30T08:38:43;102254.34;;;13.82;68.19
66887;BME280;67239;51.680;5.976;2023-04-30T08:41:11;102248.63;;;14.01;66.46
66887;BME280;67239;51.680;5.976;2023-04-30T08:43:40;102250.38;;;14.02;65.51
66887;BME280;67239;51.680;5.976;2023-04-30T08:46:11;102248.69;;;13.98;65.66
66887;BME280;67239;51.680;5.976;2023-04-30T08:48:42;102252.13;;;14.03;65.87
66887;BME280;67239;51.680;5.976;2023-04-30T08:51:10;102242.22;;;14.10;64.49
66887;BME280;67239;51.680;5.976;2023-04-30T08:53:38;102251.06;;;14.10;65.88
66887;BME280;67239;51.680;5.976;2023-04-30T08:56:08;102242.84;;;14.23;65.55
66887;BME280;67239;51.680;5.976;2023-04-30T08:58:36;102242.63;;;14.31;63.92
66887;BME280;67239;51.680;5.976;2023-04-30T09:01:05;102235.72;;;14.23;63.90
66887;BME280;67239;51.680;5.976;2023-04-30T09:03:35;102231.31;;;14.24;64.67
66887;BME280;67239;51.680;5.976;2023-04-30T09:06:02;102231.00;;;14.36;63.19
66887;BME280;67239;51.680;5.976;2023-04-30T09:08:44;102231.72;;;14.44;62.68
66887;BME280;67239;51.680;5.976;2023-04-30T09:11:26;102223.53;;;14.54;63.10
66887;BME280;67239;51.680;5.976;2023-04-30T09:13:57;102233.97;;;14.60;62.39
66887;BME280;67239;51.680;5.976;2023-04-30T09:16:26;102226.84;;;14.62;62.45
66887;BME280;67239;51.680;5.976;2023-04-30T09:18:59;102232.94;;;14.67;61.92
66887;BME280;67239;51.680;5.976;2023-04-30T09:21:35;102234.56;;;14.73;61.12
66887;BME280;67239;51.680;5.976;2023-04-30T09:24:04;102230.00;;;14.78;61.52
66887;BME280;67239;51.680;5.976;2023-04-30T09:26:36;102224.47;;;14.86;61.69
66887;BME280;67239;51.680;5.976;2023-04-30T09:29:04;102230.38;;;14.99;61.92
66887;BME280;67239;51.680;5.976;2023-04-30T09:31:37;102214.88;;;15.15;59.82
66887;BME280;67239;51.680;5.976;2023-04-30T09:34:05;102219.97;;;15.22;60.29
66887;BME280;67239;51.680;5.976;2023-04-30T09:36:33;102214.44;;;15.30;59.99
66887;BME280;67239;51.680;5.976;2023-04-30T09:39:08;102208.13;;;15.34;59.90
66887;BME280;67239;51.680;5.976;2023-04-30T09:41:43;102217.09;;;15.30;58.81
66887;BME280;67239;51.680;5.976;2023-04-30T09:44:27;102218.72;;;15.36;57.99
66887;BME280;67239;51.680;5.976;2023-04-30T09:46:55;102213.25;;;15.41;57.86
66887;BME280;67239;51.680;5.976;2023-04-30T09:49:24;102210.66;;;15.39;58.66
66887;BME280;67239;51.680;5.976;2023-04-30T09:51:57;102212.22;;;15.46;58.52
66887;BME280;67239;51.680;5.976;2023-04-30T09:54:30;102203.13;;;15.55;58.84
66887;BME280;67239;51.680;5.976;2023-04-30T09:56:59;102195.56;;;15.71;57.61
66887;BME280;67239;51.680;5.976;2023-04-30T09:59:33;102193.81;;;15.70;57.45
66887;BME280;67239;51.680;5.976;2023-04-30T10:02:05;102191.78;;;15.78;58.87
66887;BME280;67239;51.680;5.976;2023-04-30T10:04:36;102181.34;;;16.02;60.37
66887;BME280;67239;51.680;5.976;2023-04-30T10:07:26;102186.75;;;16.26;58.71
66887;BME280;67239;51.680;5.976;2023-04-30T10:10:07;102189.78;;;16.42;56.79
66887;BME280;67239;51.680;5.976;2023-04-30T10:12:52;102181.25;;;16.32;56.06
66887;BME280;67239;51.680;5.976;2023-04-30T10:15:27;102185.78;;;16.28;55.31
66887;BME280;67239;51.680;5.976;2023-04-30T10:18:03;102184.78;;;16.33;54.42
66887;BME280;67239;51.680;5.976;2023-04-30T10:20:41;102173.50;;;16.24;55.46
66887;BME280;67239;51.680;5.976;2023-04-30T10:23:08;102174.78;;;16.39;54.47
66887;BME280;67239;51.680;5.976;2023-04-30T10:25:37;102180.03;;;16.42;55.23
66887;BME280;67239;51.680;5.976;2023-04-30T10:28:04;102177.69;;;16.58;54.40
66887;BME280;67239;51.680;5.976;2023-04-30T10:30:34;102179.22;;;16.66;53.43
66887;BME280;67239;51.680;5.976;2023-04-30T10:33:12;102181.50;;;16.76;53.16
66887;BME280;67239;51.680;5.976;2023-04-30T10:35:59;102175.06;;;16.84;52.72
66887;BME280;67239;51.680;5.976;2023-04-30T10:38:33;102174.06;;;16.86;53.81
66887;BME280;67239;51.680;5.976;2023-04-30T10:41:05;102173.25;;;16.84;54.80
66887;BME280;67239;51.680;5.976;2023-04-30T10:43:35;102171.78;;;17.01;52.02
66887;BME280;67239;51.680;5.976;2023-04-30T10:46:02;102170.06;;;17.00;53.39
66887;BME280;67239;51.680;5.976;2023-04-30T10:48:33;102161.13;;;17.01;52.42
66887;BME280;67239;51.680;5.976;2023-04-30T10:51:01;102157.63;;;17.00;53.26
66887;BME280;67239;51.680;5.976;2023-04-30T10:53:30;102155.31;;;17.15;52.81
66887;BME280;67239;51.680;5.976;2023-04-30T10:56:00;102146.22;;;17.20;53.16
66887;BME280;67239;51.680;5.976;2023-04-30T10:58:37;102149.41;;;17.30;53.73
66887;BME280;67239;51.680;5.976;2023-04-30T11:01:11;102151.25;;;17.52;52.39
66887;BME280;67239;51.680;5.976;2023-04-30T11:03:42;102146.66;;;17.56;51.46
66887;BME280;67239;51.680;5.976;2023-04-30T11:06:48;102147.03;;;17.46;50.82
66887;BME280;67239;51.680;5.976;2023-04-30T11:09:16;102144.75;;;17.35;51.88
66887;BME280;67239;51.680;5.976;2023-04-30T11:11:44;102147.56;;;17.32;50.90
66887;BME280;67239;51.680;5.976;2023-04-30T11:14:19;102142.69;;;17.44;50.17
66887;BME280;67239;51.680;5.976;2023-04-30T11:16:52;102136.59;;;17.40;50.51
66887;BME280;67239;51.680;5.976;2023-04-30T11:19:21;102141.91;;;17.40;50.40
66887;BME280;67239;51.680;5.976;2023-04-30T11:27:25;102131.94;;;17.69;52.29
66887;BME280;67239;51.680;5.976;2023-04-30T11:29:55;102120.91;;;18.00;49.39
66887;BME280;67239;51.680;5.976;2023-04-30T11:32:26;102122.56;;;18.03;49.54
66887;BME280;67239;51.680;5.976;2023-04-30T11:35:03;102108.19;;;18.07;49.92
66887;BME280;67239;51.680;5.976;2023-04-30T11:37:33;102114.78;;;18.19;49.89
66887;BME280;67239;51.680;5.976;2023-04-30T11:40:07;102104.59;;;18.29;51.13
66887;BME280;67239;51.680;5.976;2023-04-30T11:42:38;102106.91;;;18.57;48.74
66887;BME280;67239;51.680;5.976;2023-04-30T11:45:15;102098.97;;;18.76;49.78
66887;BME280;67239;51.680;5.976;2023-04-30T11:47:50;102101.34;;;19.03;48.24
66887;BME280;67239;51.680;5.976;2023-04-30T11:50:22;102101.88;;;19.12;45.89
66887;BME280;67239;51.680;5.976;2023-04-30T11:52:56;102103.88;;;18.86;46.46
66887;BME280;67239;51.680;5.976;2023-04-30T11:55:27;102097.03;;;18.80;47.20
66887;BME280;67239;51.680;5.976;2023-04-30T11:57:56;102095.25;;;18.60;47.21
66887;BME280;67239;51.680;5.976;2023-04-30T12:00:26;102095.28;;;18.39;48.50
66887;BME280;67239;51.680;5.976;2023-04-30T12:02:55;102098.19;;;18.33;46.54
66887;BME280;67239;51.680;5.976;2023-04-30T12:05:25;102090.97;;;18.35;47.57
66887;BME280;67239;51.680;5.976;2023-04-30T12:07:56;102093.38;;;18.62;48.36
66887;BME280;67239;51.680;5.976;2023-04-30T12:10:31;102093.13;;;18.87;48.88
66887;BME280;67239;51.680;5.976;2023-04-30T12:12:58;102092.34;;;19.06;46.11
66887;BME280;67239;51.680;5.976;2023-04-30T12:15:25;102094.22;;;19.04;45.70
66887;BME280;67239;51.680;5.976;2023-04-30T12:17:55;102094.00;;;19.08;45.05
66887;BME280;67239;51.680;5.976;2023-04-30T12:20:27;102090.97;;;18.76;46.05
66887;BME280;67239;51.680;5.976;2023-04-30T12:22:57;102085.44;;;18.40;46.13
66887;BME280;67239;51.680;5.976;2023-04-30T12:25:27;102090.66;;;18.43;46.60
66887;BME280;67239;51.680;5.976;2023-04-30T12:27:58;102080.78;;;18.66;44.79
66887;BME280;67239;51.680;5.976;2023-04-30T12:30:25;102079.03;;;18.65;44.57
66887;BME280;67239;51.680;5.976;2023-04-30T12:32:57;102079.03;;;18.65;44.97
66887;BME280;67239;51.680;5.976;2023-04-30T12:35:28;102072.53;;;18.70;45.69
66887;BME280;67239;51.680;5.976;2023-04-30T12:38:05;102072.31;;;18.96;45.35
66887;BME280;67239;51.680;5.976;2023-04-30T12:40:33;102072.75;;;19.24;44.23
66887;BME280;67239;51.680;5.976;2023-04-30T12:43:05;102061.84;;;19.48;44.43
66887;BME280;67239;51.680;5.976;2023-04-30T12:45:49;102065.38;;;19.85;43.77
66887;BME280;67239;51.680;5.976;2023-04-30T12:48:23;102059.88;;;19.89;42.06
66887;BME280;67239;51.680;5.976;2023-04-30T12:50:58;102052.94;;;20.02;43.04
66887;BME280;67239;51.680;5.976;2023-04-30T12:53:30;102060.03;;;20.21;42.92
66887;BME280;67239;51.680;5.976;2023-04-30T12:56:14;102054.50;;;20.41;42.82
66887;BME280;67239;51.680;5.976;2023-04-30T12:58:45;102050.38;;;20.52;41.33
66887;BME280;67239;51.680;5.976;2023-04-30T13:01:17;102042.59;;;20.47;40.90
66887;BME280;67239;51.680;5.976;2023-04-30T13:03:46;102048.13;;;20.44;41.00
66887;BME280;67239;51.680;5.976;2023-04-30T13:06:14;102047.19;;;20.27;42.01
66887;BME280;67239;51.680;5.976;2023-04-30T13:08:43;102045.94;;;19.99;41.85
66887;BME280;67239;51.680;5.976;2023-04-30T13:11:23;102042.63;;;19.94;41.51
66887;BME280;67239;51.680;5.976;2023-04-30T13:13:53;102041.06;;;19.90;41.38
66887;BME280;67239;51.680;5.976;2023-04-30T13:16:22;102032.25;;;19.88;41.11
66887;BME280;67239;51.680;5.976;2023-04-30T13:18:51;102029.06;;;19.80;43.18
66887;BME280;67239;51.680;5.976;2023-04-30T13:21:18;102024.28;;;20.04;42.07
66887;BME280;67239;51.680;5.976;2023-04-30T13:23:46;102028.84;;;20.20;40.69
66887;BME280;67239;51.680;5.976;2023-04-30T13:26:19;102029.63;;;20.22;40.29